Terminal Aerodrome Forecast
Issued by NWS

Home | Current Version | Previous Version | Text Only | Print | Product List | Glossary On
Versions: 1 2 3 4 5 6 7 8 9 10 11 12 13 14 15 16 17 18 19
561
FTUS42 TJSJ 171725
TAFJPS
TAF
TJPS 171725Z 1718/1818 14012G20KT P6SM SCT025
     FM180000 06008KT P6SM SCT040
     FM181400 12012KT P6SM SCT030 BKN080
      AMD NOT SKED TIL 180300=

USA.gov is the U.S. government's official web portal to all federal, state and local government web resources and services.